sensor_id;sensor_type;location;lat;lon;timestamp;pressure;altitude;pressure_sealevel;temperature;humidity
39177;BME280;24904;52.208;21.192;2023-06-26T00:03:20;100485.92;;;15.02;79.12
39177;BME280;24904;52.208;21.192;2023-06-26T00:08:23;100487.12;;;14.99;79.12
39177;BME280;24904;52.208;21.192;2023-06-26T00:13:26;100490.54;;;14.95;79.01
39177;BME280;24904;52.208;21.192;2023-06-26T00:18:29;100483.45;;;14.91;79.27
39177;BME280;24904;52.208;21.192;2023-06-26T00:23:32;100485.27;;;14.91;79.29
39177;BME280;24904;52.208;21.192;2023-06-26T00:28:39;100484.95;;;14.91;79.27
39177;BME280;24904;52.208;21.192;2023-06-26T00:33:42;100485.27;;;14.88;79.32
39177;BME280;24904;52.208;21.192;2023-06-26T00:38:45;100488.78;;;14.84;79.32
39177;BME280;24904;52.208;21.192;2023-06-26T00:43:49;100489.98;;;14.81;79.28
39177;BME280;24904;52.208;21.192;2023-06-26T00:48:53;100488.80;;;14.74;79.26
39177;BME280;24904;52.208;21.192;2023-06-26T00:53:57;100478.24;;;14.72;79.33
39177;BME280;24904;52.208;21.192;2023-06-26T00:59:00;100476.92;;;14.69;79.27
39177;BME280;24904;52.208;21.192;2023-06-26T01:04:03;100473.38;;;14.67;79.47
39177;BME280;24904;52.208;21.192;2023-06-26T01:09:08;100473.45;;;14.64;79.44
39177;BME280;24904;52.208;21.192;2023-06-26T01:14:11;100471.17;;;14.61;79.41
39177;BME280;24904;52.208;21.192;2023-06-26T01:19:20;100462.48;;;14.60;79.55
39177;BME280;24904;52.208;21.192;2023-06-26T01:24:33;100457.94;;;14.55;79.33
39177;BME280;24904;52.208;21.192;2023-06-26T01:29:39;100460.55;;;14.54;79.48
39177;BME280;24904;52.208;21.192;2023-06-26T01:34:44;100454.64;;;14.51;79.35
39177;BME280;24904;52.208;21.192;2023-06-26T01:39:48;100451.73;;;14.43;79.19
39177;BME280;24904;52.208;21.192;2023-06-26T01:44:51;100454.17;;;14.40;79.18
39177;BME280;24904;52.208;21.192;2023-06-26T01:49:59;100452.14;;;14.35;79.35
39177;BME280;24904;52.208;21.192;2023-06-26T01:55:11;100446.63;;;14.28;79.12
39177;BME280;24904;52.208;21.192;2023-06-26T02:00:17;100454.93;;;14.22;79.31
39177;BME280;24904;52.208;21.192;2023-06-26T02:05:22;100447.54;;;14.14;79.28
39177;BME280;24904;52.208;21.192;2023-06-26T02:10:26;100443.70;;;14.05;79.24
39177;BME280;24904;52.208;21.192;2023-06-26T02:15:29;100437.31;;;13.98;79.14
39177;BME280;24904;52.208;21.192;2023-06-26T02:20:32;100439.14;;;13.95;79.23
39177;BME280;24904;52.208;21.192;2023-06-26T02:25:36;100439.77;;;13.88;79.08
39177;BME280;24904;52.208;21.192;2023-06-26T02:30:39;100435.52;;;13.84;79.37
39177;BME280;24904;52.208;21.192;2023-06-26T02:35:42;100427.73;;;13.83;79.63
39177;BME280;24904;52.208;21.192;2023-06-26T02:40:46;100429.29;;;13.84;79.59
39177;BME280;24904;52.208;21.192;2023-06-26T02:45:51;100434.33;;;13.85;79.44
39177;BME280;24904;52.208;21.192;2023-06-26T02:50:54;100432.21;;;13.86;79.61
39177;BME280;24904;52.208;21.192;2023-06-26T02:56:04;100441.83;;;13.84;79.48
39177;BME280;24904;52.208;21.192;2023-06-26T03:01:08;100441.52;;;13.81;79.52
39177;BME280;24904;52.208;21.192;2023-06-26T03:06:11;100434.27;;;13.80;79.55
39177;BME280;24904;52.208;21.192;2023-06-26T03:11:15;100435.92;;;13.80;79.82
39177;BME280;24904;52.208;21.192;2023-06-26T03:16:18;100438.58;;;13.88;80.14
39177;BME280;24904;52.208;21.192;2023-06-26T03:21:21;100434.09;;;13.93;80.15
39177;BME280;24904;52.208;21.192;2023-06-26T03:26:25;100430.93;;;13.97;80.22
39177;BME280;24904;52.208;21.192;2023-06-26T03:31:31;100424.14;;;13.99;80.49
39177;BME280;24904;52.208;21.192;2023-06-26T03:36:35;100430.12;;;14.07;80.98
39177;BME280;24904;52.208;21.192;2023-06-26T03:41:39;100428.52;;;14.15;80.89
39177;BME280;24904;52.208;21.192;2023-06-26T03:46:42;100430.86;;;14.20;80.92
39177;BME280;24904;52.208;21.192;2023-06-26T03:51:45;100428.81;;;14.26;81.11
39177;BME280;24904;52.208;21.192;2023-06-26T03:56:50;100427.11;;;14.33;81.43
39177;BME280;24904;52.208;21.192;2023-06-26T04:01:53;100429.94;;;14.45;81.88
39177;BME280;24904;52.208;21.192;2023-06-26T04:06:56;100429.37;;;14.55;81.81
39177;BME280;24904;52.208;21.192;2023-06-26T04:12:01;100431.84;;;14.66;82.23
39177;BME280;24904;52.208;21.192;2023-06-26T04:17:05;100435.17;;;14.79;82.59
39177;BME280;24904;52.208;21.192;2023-06-26T04:22:08;100441.25;;;14.95;82.99
39177;BME280;24904;52.208;21.192;2023-06-26T04:27:11;100440.85;;;15.08;83.40
39177;BME280;24904;52.208;21.192;2023-06-26T04:32:16;100438.13;;;15.27;83.82
39177;BME280;24904;52.208;21.192;2023-06-26T04:37:19;100436.32;;;15.46;84.05
39177;BME280;24904;52.208;21.192;2023-06-26T04:42:22;100437.06;;;15.64;84.10
39177;BME280;24904;52.208;21.192;2023-06-26T04:47:25;100431.46;;;15.81;83.53
39177;BME280;24904;52.208;21.192;2023-06-26T04:52:28;100428.36;;;15.99;83.21
39177;BME280;24904;52.208;21.192;2023-06-26T04:57:31;100434.18;;;16.18;83.06
39177;BME280;24904;52.208;21.192;2023-06-26T05:02:34;100431.66;;;16.38;82.99
39177;BME280;24904;52.208;21.192;2023-06-26T05:07:37;100433.97;;;16.57;82.79
39177;BME280;24904;52.208;21.192;2023-06-26T05:12:40;100433.41;;;16.72;82.50
39177;BME280;24904;52.208;21.192;2023-06-26T05:17:43;100436.16;;;16.91;82.25
39177;BME280;24904;52.208;21.192;2023-06-26T05:22:46;100437.21;;;17.12;81.58
39177;BME280;24904;52.208;21.192;2023-06-26T05:27:51;100433.16;;;17.34;80.99
39177;BME280;24904;52.208;21.192;2023-06-26T05:32:55;100431.88;;;17.55;80.89
39177;BME280;24904;52.208;21.192;2023-06-26T05:37:59;100428.14;;;17.75;80.53
39177;BME280;24904;52.208;21.192;2023-06-26T05:43:04;100419.59;;;17.97;80.00
39177;BME280;24904;52.208;21.192;2023-06-26T05:48:07;100423.24;;;18.22;78.99
39177;BME280;24904;52.208;21.192;2023-06-26T05:53:11;100424.52;;;18.45;78.45
39177;BME280;24904;52.208;21.192;2023-06-26T05:58:15;100420.11;;;18.67;77.98
39177;BME280;24904;52.208;21.192;2023-06-26T06:03:18;100415.76;;;18.89;77.31
39177;BME280;24904;52.208;21.192;2023-06-26T06:08:21;100413.42;;;19.15;76.77
39177;BME280;24904;52.208;21.192;2023-06-26T06:13:24;100411.14;;;19.40;76.18
39177;BME280;24904;52.208;21.192;2023-06-26T06:18:28;100412.77;;;19.65;75.35
39177;BME280;24904;52.208;21.192;2023-06-26T06:23:31;100411.77;;;19.88;74.92
39177;BME280;24904;52.208;21.192;2023-06-26T06:28:34;100411.58;;;20.13;73.65
39177;BME280;24904;52.208;21.192;2023-06-26T06:33:37;100411.34;;;20.39;72.40
39177;BME280;24904;52.208;21.192;2023-06-26T06:38:43;100403.29;;;20.64;71.93
39177;BME280;24904;52.208;21.192;2023-06-26T06:43:46;100393.67;;;20.90;70.92
39177;BME280;24904;52.208;21.192;2023-06-26T06:48:49;100393.09;;;21.11;69.86
39177;BME280;24904;52.208;21.192;2023-06-26T06:53:52;100396.94;;;21.33;69.23
39177;BME280;24904;52.208;21.192;2023-06-26T06:58:55;100393.46;;;21.57;68.93
39177;BME280;24904;52.208;21.192;2023-06-26T07:03:58;100390.80;;;21.78;68.23
39177;BME280;24904;52.208;21.192;2023-06-26T07:09:01;100388.35;;;21.96;66.92
39177;BME280;24904;52.208;21.192;2023-06-26T07:14:05;100387.66;;;22.16;66.59
39177;BME280;24904;52.208;21.192;2023-06-26T07:19:08;100385.08;;;22.38;64.82
39177;BME280;24904;52.208;21.192;2023-06-26T07:24:11;100384.60;;;22.57;64.45
39177;BME280;24904;52.208;21.192;2023-06-26T07:29:14;100385.31;;;22.78;63.93
39177;BME280;24904;52.208;21.192;2023-06-26T07:34:19;100383.32;;;22.95;63.55
39177;BME280;24904;52.208;21.192;2023-06-26T07:39:22;100379.90;;;23.14;62.31
39177;BME280;24904;52.208;21.192;2023-06-26T07:44:25;100376.73;;;23.37;62.59
39177;BME280;24904;52.208;21.192;2023-06-26T07:49:28;100379.84;;;23.59;61.12
39177;BME280;24904;52.208;21.192;2023-06-26T07:54:32;100377.21;;;23.76;59.66
39177;BME280;24904;52.208;21.192;2023-06-26T07:59:35;100378.88;;;23.91;59.24
39177;BME280;24904;52.208;21.192;2023-06-26T08:04:38;100376.90;;;24.08;56.85
39177;BME280;24904;52.208;21.192;2023-06-26T08:09:41;100376.79;;;24.23;58.54
39177;BME280;24904;52.208;21.192;2023-06-26T08:14:44;100375.89;;;24.35;56.72
39177;BME280;24904;52.208;21.192;2023-06-26T08:19:48;100372.98;;;24.48;55.83
39177;BME280;24904;52.208;21.192;2023-06-26T08:24:51;100376.20;;;24.40;54.73
39177;BME280;24904;52.208;21.192;2023-06-26T08:29:54;100370.71;;;24.48;53.84
39177;BME280;24904;52.208;21.192;2023-06-26T08:34:57;100364.89;;;24.60;53.13
39177;BME280;24904;52.208;21.192;2023-06-26T08:40:01;100367.10;;;24.62;52.89
39177;BME280;24904;52.208;21.192;2023-06-26T08:45:04;100368.58;;;24.44;52.24
39177;BME280;24904;52.208;21.192;2023-06-26T08:50:12;100367.88;;;24.37;51.77
39177;BME280;24904;52.208;21.192;2023-06-26T08:55:17;100363.08;;;24.52;51.22
39177;BME280;24904;52.208;21.192;2023-06-26T09:00:21;100352.99;;;24.72;50.86
39177;BME280;24904;52.208;21.192;2023-06-26T09:05:24;100351.35;;;24.84;50.98
39177;BME280;24904;52.208;21.192;2023-06-26T09:10:29;100350.77;;;24.81;51.71
39177;BME280;24904;52.208;21.192;2023-06-26T09:15:38;100355.34;;;24.70;51.25
39177;BME280;24904;52.208;21.192;2023-06-26T09:20:44;100351.34;;;24.52;51.30
39177;BME280;24904;52.208;21.192;2023-06-26T09:25:47;100348.41;;;24.55;51.04
39177;BME280;24904;52.208;21.192;2023-06-26T09:30:51;100345.04;;;24.55;51.52
39177;BME280;24904;52.208;21.192;2023-06-26T09:35:55;100340.80;;;24.72;50.32
39177;BME280;24904;52.208;21.192;2023-06-26T09:41:00;100343.10;;;24.94;50.06
39177;BME280;24904;52.208;21.192;2023-06-26T09:46:04;100338.07;;;24.95;48.90
39177;BME280;24904;52.208;21.192;2023-06-26T09:51:07;100331.95;;;25.09;48.69
39177;BME280;24904;52.208;21.192;2023-06-26T09:56:16;100328.94;;;25.34;48.34
39177;BME280;24904;52.208;21.192;2023-06-26T10:01:20;100325.52;;;25.57;47.96
39177;BME280;24904;52.208;21.192;2023-06-26T10:06:26;100315.84;;;25.67;47.26
39177;BME280;24904;52.208;21.192;2023-06-26T10:11:34;100321.30;;;25.58;46.64
39177;BME280;24904;52.208;21.192;2023-06-26T10:16:40;100318.77;;;25.32;47.35
39177;BME280;24904;52.208;21.192;2023-06-26T10:21:44;100309.16;;;25.31;46.89
39177;BME280;24904;52.208;21.192;2023-06-26T10:26:51;100301.31;;;25.53;47.55
39177;BME280;24904;52.208;21.192;2023-06-26T10:31:57;100293.02;;;25.75;46.75
39177;BME280;24904;52.208;21.192;2023-06-26T10:37:02;100295.05;;;25.98;45.56
39177;BME280;24904;52.208;21.192;2023-06-26T10:42:10;100287.14;;;26.14;44.96
39177;BME280;24904;52.208;21.192;2023-06-26T10:47:30;100286.50;;;26.30;43.72
39177;BME280;24904;52.208;21.192;2023-06-26T10:52:38;100276.71;;;26.45;43.93
39177;BME280;24904;52.208;21.192;2023-06-26T10:57:47;100272.40;;;26.60;43.71
39177;BME280;24904;52.208;21.192;2023-06-26T11:02:52;100270.69;;;26.76;42.72
39177;BME280;24904;52.208;21.192;2023-06-26T11:08:07;100273.36;;;26.88;43.03
39177;BME280;24904;52.208;21.192;2023-06-26T11:13:12;100271.02;;;27.00;41.97
39177;BME280;24904;52.208;21.192;2023-06-26T11:18:17;100262.02;;;27.05;40.11
39177;BME280;24904;52.208;21.192;2023-06-26T11:23:23;100253.84;;;27.08;39.57
39177;BME280;24904;52.208;21.192;2023-06-26T11:28:28;100246.57;;;27.17;40.13
39177;BME280;24904;52.208;21.192;2023-06-26T11:33:32;100251.36;;;27.23;39.84
39177;BME280;24904;52.208;21.192;2023-06-26T11:38:39;100249.59;;;27.30;39.96
39177;BME280;24904;52.208;21.192;2023-06-26T11:43:43;100245.52;;;27.36;39.86
39177;BME280;24904;52.208;21.192;2023-06-26T11:55:52;100244.11;;;27.02;38.89
39177;BME280;24904;52.208;21.192;2023-06-26T12:00:57;100235.91;;;26.94;39.42
39177;BME280;24904;52.208;21.192;2023-06-26T12:06:02;100231.33;;;26.92;39.01
39177;BME280;24904;52.208;21.192;2023-06-26T12:11:09;100226.77;;;26.96;39.40
39177;BME280;24904;52.208;21.192;2023-06-26T12:16:15;100219.52;;;27.02;38.72
39177;BME280;24904;52.208;21.192;2023-06-26T12:21:46;100220.09;;;27.05;38.36
39177;BME280;24904;52.208;21.192;2023-06-26T12:26:54;100220.73;;;26.97;38.04
39177;BME280;24904;52.208;21.192;2023-06-26T12:32:01;100217.98;;;26.90;38.12
39177;BME280;24904;52.208;21.192;2023-06-26T12:37:08;100212.09;;;26.89;37.54
39177;BME280;24904;52.208;21.192;2023-06-26T12:42:16;100209.54;;;26.88;37.75
39177;BME280;24904;52.208;21.192;2023-06-26T12:47:24;100200.76;;;26.89;37.96
39177;BME280;24904;52.208;21.192;2023-06-26T12:52:30;100200.27;;;26.91;37.70
39177;BME280;24904;52.208;21.192;2023-06-26T12:57:35;100191.25;;;26.91;37.30
39177;BME280;24904;52.208;21.192;2023-06-26T13:02:40;100181.22;;;26.91;36.91
39177;BME280;24904;52.208;21.192;2023-06-26T13:07:45;100182.27;;;26.93;37.04
39177;BME280;24904;52.208;21.192;2023-06-26T13:12:50;100181.79;;;26.93;37.23
39177;BME280;24904;52.208;21.192;2023-06-26T13:17:55;100177.11;;;26.91;37.32
39177;BME280;24904;52.208;21.192;2023-06-26T13:23:00;100173.73;;;26.87;37.00
39177;BME280;24904;52.208;21.192;2023-06-26T13:28:05;100165.42;;;26.82;37.21
39177;BME280;24904;52.208;21.192;2023-06-26T13:33:10;100160.05;;;26.75;37.39
39177;BME280;24904;52.208;21.192;2023-06-26T13:38:15;100154.99;;;26.64;36.87
39177;BME280;24904;52.208;21.192;2023-06-26T13:43:22;100150.16;;;26.61;37.22
39177;BME280;24904;52.208;21.192;2023-06-26T13:48:27;100144.08;;;26.55;36.95
39177;BME280;24904;52.208;21.192;2023-06-26T13:53:32;100143.23;;;26.45;37.00
39177;BME280;24904;52.208;21.192;2023-06-26T13:58:37;100133.42;;;26.31;37.28
39177;BME280;24904;52.208;21.192;2023-06-26T14:03:43;100122.90;;;26.18;37.90
39177;BME280;24904;52.208;21.192;2023-06-26T14:08:48;100117.38;;;26.11;39.08
39177;BME280;24904;52.208;21.192;2023-06-26T14:13:53;100108.63;;;26.06;39.54
39177;BME280;24904;52.208;21.192;2023-06-26T14:18:58;100108.90;;;26.04;40.06
39177;BME280;24904;52.208;21.192;2023-06-26T14:24:03;100111.58;;;26.00;40.14
39177;BME280;24904;52.208;21.192;2023-06-26T14:29:08;100103.71;;;25.90;39.68
39177;BME280;24904;52.208;21.192;2023-06-26T14:34:13;100098.09;;;25.84;39.14
39177;BME280;24904;52.208;21.192;2023-06-26T14:39:18;100099.60;;;25.78;38.92
39177;BME280;24904;52.208;21.192;2023-06-26T14:44:23;100092.11;;;25.66;39.80
39177;BME280;24904;52.208;21.192;2023-06-26T14:49:28;100082.00;;;25.55;40.67
39177;BME280;24904;52.208;21.192;2023-06-26T14:54:33;100075.14;;;25.48;40.94
39177;BME280;24904;52.208;21.192;2023-06-26T14:59:39;100065.52;;;25.49;39.61
39177;BME280;24904;52.208;21.192;2023-06-26T15:04:44;100057.67;;;25.59;40.02
39177;BME280;24904;52.208;21.192;2023-06-26T15:09:50;100049.38;;;25.66;39.08
39177;BME280;24904;52.208;21.192;2023-06-26T15:14:55;100050.25;;;25.72;38.83
39177;BME280;24904;52.208;21.192;2023-06-26T15:20:00;100036.15;;;25.73;38.67
39177;BME280;24904;52.208;21.192;2023-06-26T15:25:06;100033.77;;;25.75;39.04
39177;BME280;24904;52.208;21.192;2023-06-26T15:30:13;100029.91;;;25.76;38.49
39177;BME280;24904;52.208;21.192;2023-06-26T15:35:18;100022.44;;;25.76;38.29
39177;BME280;24904;52.208;21.192;2023-06-26T15:40:23;100021.30;;;25.78;38.47
39177;BME280;24904;52.208;21.192;2023-06-26T15:45:28;100015.96;;;25.73;39.23
39177;BME280;24904;52.208;21.192;2023-06-26T15:50:33;100009.92;;;25.74;38.26
39177;BME280;24904;52.208;21.192;2023-06-26T15:55:38;100008.48;;;25.73;37.60
39177;BME280;24904;52.208;21.192;2023-06-26T16:00:43;100004.85;;;25.72;37.58
39177;BME280;24904;52.208;21.192;2023-06-26T16:05:48;100006.63;;;25.68;37.70
39177;BME280;24904;52.208;21.192;2023-06-26T16:10:54;100010.45;;;25.62;37.96
39177;BME280;24904;52.208;21.192;2023-06-26T16:15:59;100001.91;;;25.56;38.13
39177;BME280;24904;52.208;21.192;2023-06-26T16:21:04;99998.30;;;25.52;38.63
39177;BME280;24904;52.208;21.192;2023-06-26T16:26:09;99993.64;;;25.52;38.62
39177;BME280;24904;52.208;21.192;2023-06-26T16:31:14;99995.41;;;25.59;39.90
39177;BME280;24904;52.208;21.192;2023-06-26T16:36:20;99991.55;;;25.56;40.35
39177;BME280;24904;52.208;21.192;2023-06-26T16:41:25;99987.30;;;25.46;41.25
39177;BME280;24904;52.208;21.192;2023-06-26T16:46:30;99990.51;;;25.32;41.55
39177;BME280;24904;52.208;21.192;2023-06-26T16:51:35;99992.72;;;25.17;41.79
39177;BME280;24904;52.208;21.192;2023-06-26T16:56:40;99986.46;;;25.01;41.82
39177;BME280;24904;52.208;21.192;2023-06-26T17:01:45;99982.28;;;24.91;41.36
39177;BME280;24904;52.208;21.192;2023-06-26T17:06:50;99980.25;;;24.82;41.12
39177;BME280;24904;52.208;21.192;2023-06-26T17:11:55;99981.87;;;24.73;41.24
39177;BME280;24904;52.208;21.192;2023-06-26T17:17:00;99981.77;;;24.65;41.45
39177;BME280;24904;52.208;21.192;2023-06-26T17:22:06;99986.15;;;24.56;41.94
39177;BME280;24904;52.208;21.192;2023-06-26T17:27:12;99994.15;;;24.48;42.05
39177;BME280;24904;52.208;21.192;2023-06-26T17:32:18;99994.20;;;24.39;42.12
39177;BME280;24904;52.208;21.192;2023-06-26T17:37:24;99998.84;;;24.33;42.45
39177;BME280;24904;52.208;21.192;2023-06-26T17:42:30;99995.02;;;24.24;42.48
39177;BME280;24904;52.208;21.192;2023-06-26T17:47:35;99992.59;;;24.15;43.04
39177;BME280;24904;52.208;21.192;2023-06-26T17:52:40;99992.11;;;24.07;43.31
39177;BME280;24904;52.208;21.192;2023-06-26T17:57:45;99986.02;;;23.98;43.59
39177;BME280;24904;52.208;21.192;2023-06-26T18:02:50;99982.17;;;23.88;43.88
39177;BME280;24904;52.208;21.192;2023-06-26T18:07:55;99976.29;;;23.78;44.70
39177;BME280;24904;52.208;21.192;2023-06-26T18:13:00;99973.73;;;23.65;44.69
39177;BME280;24904;52.208;21.192;2023-06-26T18:18:06;99970.70;;;23.52;45.80
39177;BME280;24904;52.208;21.192;2023-06-26T18:23:11;99971.29;;;23.38;46.96
39177;BME280;24904;52.208;21.192;2023-06-26T18:28:16;99971.48;;;23.22;47.83
39177;BME280;24904;52.208;21.192;2023-06-26T18:33:21;99978.73;;;23.07;48.16
39177;BME280;24904;52.208;21.192;2023-06-26T18:38:29;99979.02;;;22.91;48.94
39177;BME280;24904;52.208;21.192;2023-06-26T18:47:30;99980.58;;;22.61;50.43
39177;BME280;24904;52.208;21.192;2023-06-26T18:52:35;99984.66;;;22.41;51.28
39177;BME280;24904;52.208;21.192;2023-06-26T18:57:40;99979.87;;;22.23;52.18
39177;BME280;24904;52.208;21.192;2023-06-26T19:02:46;99981.20;;;22.02;52.63
39177;BME280;24904;52.208;21.192;2023-06-26T19:07:51;99985.13;;;21.85;53.18
39177;BME280;24904;52.208;21.192;2023-06-26T19:12:56;99987.96;;;21.68;53.49
39177;BME280;24904;52.208;21.192;2023-06-26T19:18:01;99986.37;;;21.54;54.20
39177;BME280;24904;52.208;21.192;2023-06-26T19:23:25;99984.16;;;21.41;54.58
39177;BME280;24904;52.208;21.192;2023-06-26T19:28:30;99981.64;;;21.24;54.96
39177;BME280;24904;52.208;21.192;2023-06-26T19:33:35;99979.34;;;21.07;55.26
39177;BME280;24904;52.208;21.192;2023-06-26T19:38:40;99973.95;;;20.91;55.60
39177;BME280;24904;52.208;21.192;2023-06-26T19:43:45;99963.60;;;20.76;56.16
39177;BME280;24904;52.208;21.192;2023-06-26T19:48:50;99965.63;;;20.66;56.51
39177;BME280;24904;52.208;21.192;2023-06-26T19:53:55;99963.13;;;20.56;56.91
39177;BME280;24904;52.208;21.192;2023-06-26T19:59:00;99962.77;;;20.48;57.12
39177;BME280;24904;52.208;21.192;2023-06-26T20:08:09;99958.90;;;20.31;57.80
39177;BME280;24904;52.208;21.192;2023-06-26T20:13:12;99955.54;;;20.10;58.31
39177;BME280;24904;52.208;21.192;2023-06-26T20:18:15;99949.23;;;20.02;58.83
39177;BME280;24904;52.208;21.192;2023-06-26T20:23:20;99944.11;;;19.91;59.33
39177;BME280;24904;52.208;21.192;2023-06-26T20:28:23;99939.74;;;19.81;59.74
39177;BME280;24904;52.208;21.192;2023-06-26T20:33:26;99935.18;;;19.73;60.18
39177;BME280;24904;52.208;21.192;2023-06-26T20:38:29;99919.66;;;19.63;60.62
39177;BME280;24904;52.208;21.192;2023-06-26T20:43:33;99909.45;;;19.51;60.96
39177;BME280;24904;52.208;21.192;2023-06-26T20:48:37;99906.13;;;19.43;61.55
39177;BME280;24904;52.208;21.192;2023-06-26T20:53:41;99903.34;;;19.36;61.55
39177;BME280;24904;52.208;21.192;2023-06-26T20:58:44;99900.45;;;19.32;61.92
39177;BME280;24904;52.208;21.192;2023-06-26T21:03:47;99903.23;;;19.21;62.25
39177;BME280;24904;52.208;21.192;2023-06-26T21:08:50;99900.39;;;19.11;62.69
39177;BME280;24904;52.208;21.192;2023-06-26T21:13:53;99903.29;;;19.05;63.11
39177;BME280;24904;52.208;21.192;2023-06-26T21:18:56;99904.70;;;18.95;63.38
39177;BME280;24904;52.208;21.192;2023-06-26T21:23:59;99898.13;;;18.84;63.40
39177;BME280;24904;52.208;21.192;2023-06-26T21:29:02;99896.50;;;18.77;63.61
39177;BME280;24904;52.208;21.192;2023-06-26T21:34:05;99889.98;;;18.71;63.85
39177;BME280;24904;52.208;21.192;2023-06-26T21:39:08;99897.52;;;18.69;64.31
39177;BME280;24904;52.208;21.192;2023-06-26T21:44:11;99895.91;;;18.62;64.47
39177;BME280;24904;52.208;21.192;2023-06-26T21:49:14;99898.20;;;18.56;64.69
39177;BME280;24904;52.208;21.192;2023-06-26T21:54:17;99907.88;;;18.49;64.70
39177;BME280;24904;52.208;21.192;2023-06-26T21:59:20;99906.02;;;18.41;64.67
39177;BME280;24904;52.208;21.192;2023-06-26T22:04:23;99911.17;;;18.33;64.70
39177;BME280;24904;52.208;21.192;2023-06-26T22:09:26;99914.91;;;18.24;64.77
39177;BME280;24904;52.208;21.192;2023-06-26T22:14:29;99915.94;;;18.19;64.58
39177;BME280;24904;52.208;21.192;2023-06-26T22:19:32;99918.68;;;18.14;64.89
39177;BME280;24904;52.208;21.192;2023-06-26T22:24:35;99918.98;;;18.08;64.99
39177;BME280;24904;52.208;21.192;2023-06-26T22:29:38;99909.14;;;18.03;65.42
39177;BME280;24904;52.208;21.192;2023-06-26T22:34:41;99905.02;;;17.99;65.89
39177;BME280;24904;52.208;21.192;2023-06-26T22:39:44;99900.34;;;17.94;66.10
39177;BME280;24904;52.208;21.192;2023-06-26T22:44:48;99890.82;;;17.91;66.37
39177;BME280;24904;52.208;21.192;2023-06-26T22:49:51;99876.98;;;17.88;66.64
39177;BME280;24904;52.208;21.192;2023-06-26T22:54:54;99867.90;;;17.87;66.85
39177;BME280;24904;52.208;21.192;2023-06-26T22:59:57;99867.59;;;17.84;67.16
39177;BME280;24904;52.208;21.192;2023-06-26T23:05:00;99866.62;;;17.75;67.15
39177;BME280;24904;52.208;21.192;2023-06-26T23:10:05;99859.41;;;17.68;67.37
39177;BME280;24904;52.208;21.192;2023-06-26T23:15:10;99854.55;;;17.69;67.77
39177;BME280;24904;52.208;21.192;2023-06-26T23:20:13;99846.11;;;17.71;67.88
39177;BME280;24904;52.208;21.192;2023-06-26T23:25:17;99830.10;;;17.73;68.01
39177;BME280;24904;52.208;21.192;2023-06-26T23:30:20;99819.18;;;17.72;68.14
39177;BME280;24904;52.208;21.192;2023-06-26T23:35:23;99810.06;;;17.69;68.27
39177;BME280;24904;52.208;21.192;2023-06-26T23:40:46;99804.57;;;17.72;68.48
39177;BME280;24904;52.208;21.192;2023-06-26T23:45:51;99808.24;;;17.68;68.30
39177;BME280;24904;52.208;21.192;2023-06-26T23:50:56;99797.10;;;17.64;68.42
39177;BME280;24904;52.208;21.192;2023-06-26T23:56:01;99789.42;;;17.63;68.36
